Time,TemperatureF,DewpointF,PressureIn,WindDirection,WindDirectionDegrees,WindSpeedMPH,WindSpeedGustMPH,Humidity,HourlyPrecipIn,Conditions,Clouds,dailyrainin,SolarRadiationWatts/m^2,SoftwareType,DateUTC
2013-08-06 00:02:00,63.0,62.0,-100.00,SSW,204,1.0,8.0,98,0.00,,,0.82,0.000000,,2013-08-06 05:02:00,
2013-08-06 00:10:00,63.0,62.0,-100.00,SSW,195,2.0,7.0,98,0.00,,,0.82,0.000000,,2013-08-06 05:10:00,
2013-08-06 00:32:00,63.0,62.0,-100.00,SSW,195,2.0,7.0,98,0.00,,,0.82,0.000000,,2013-08-06 05:32:00,
2013-08-06 00:43:00,63.0,62.0,-100.00,SSW,195,2.0,7.0,98,0.00,,,0.82,0.000000,,2013-08-06 05:43:00,
2013-08-06 00:53:00,63.0,62.0,-100.00,SSW,195,2.0,7.0,98,0.00,,,0.82,0.000000,,2013-08-06 05:53:00,
2013-08-06 01:02:00,63.0,62.0,-100.00,SSW,195,2.0,7.0,98,0.00,,,0.82,0.000000,,2013-08-06 06:02:00,
2013-08-06 01:10:00,63.0,62.0,-100.00,SSW,209,1.0,7.0,98,0.00,,,0.82,0.000000,,2013-08-06 06:10:00,
2013-08-06 01:32:00,63.0,62.0,-100.00,SSW,209,1.0,7.0,98,0.00,,,0.82,0.000000,,2013-08-06 06:32:00,
2013-08-06 01:43:00,63.0,62.0,-100.00,SSW,209,1.0,7.0,98,0.00,,,0.82,0.000000,,2013-08-06 06:43:00,
2013-08-06 01:52:00,63.0,62.0,-100.00,SSW,209,1.0,7.0,98,0.00,,,0.82,0.000000,,2013-08-06 06:52:00,
2013-08-06 02:01:00,63.0,62.0,-100.00,SSW,209,1.0,7.0,98,0.00,,,0.82,0.000000,,2013-08-06 07:01:00,
2013-08-06 02:10:00,62.0,61.0,-100.00,SSW,207,2.0,9.0,98,0.00,,,0.82,0.000000,,2013-08-06 07:10:00,
2013-08-06 02:32:00,62.0,61.0,-100.00,SSW,207,2.0,9.0,98,0.00,,,0.82,0.000000,,2013-08-06 07:32:00,
2013-08-06 02:44:00,62.0,61.0,-100.00,SSW,207,2.0,9.0,98,0.00,,,0.82,0.000000,,2013-08-06 07:44:00,
2013-08-06 02:53:00,62.0,61.0,-100.00,SSW,207,2.0,9.0,98,0.00,,,0.82,0.000000,,2013-08-06 07:53:00,
2013-08-06 03:02:00,62.0,61.0,-100.00,SSW,207,2.0,9.0,98,0.00,,,0.82,0.000000,,2013-08-06 08:02:00,
2013-08-06 03:10:00,62.0,61.0,-100.00,SW,223,1.0,7.0,98,0.00,,,0.82,0.000000,,2013-08-06 08:10:00,
2013-08-06 03:33:00,62.0,61.0,-100.00,SW,223,1.0,7.0,98,0.00,,,0.82,0.000000,,2013-08-06 08:33:00,
2013-08-06 03:43:00,62.0,61.0,-100.00,SW,223,1.0,7.0,98,0.00,,,0.82,0.000000,,2013-08-06 08:43:00,
2013-08-06 03:52:00,62.0,61.0,-100.00,SW,223,1.0,7.0,98,0.00,,,0.82,0.000000,,2013-08-06 08:52:00,
2013-08-06 04:01:00,62.0,61.0,-100.00,SW,223,1.0,7.0,98,0.00,,,0.82,0.000000,,2013-08-06 09:01:00,
2013-08-06 04:10:00,62.0,61.0,-100.00,SSW,201,1.0,7.0,98,0.01,,,0.83,0.000000,,2013-08-06 09:10:00,
2013-08-06 04:33:00,62.0,61.0,-100.00,SSW,201,1.0,7.0,98,0.01,,,0.83,0.000000,,2013-08-06 09:33:00,
2013-08-06 04:43:00,62.0,61.0,-100.00,SSW,201,1.0,7.0,98,0.01,,,0.83,0.000000,,2013-08-06 09:43:00,
2013-08-06 04:52:00,62.0,61.0,-100.00,SSW,201,1.0,7.0,98,0.01,,,0.83,0.000000,,2013-08-06 09:52:00,
2013-08-06 05:01:00,62.0,61.0,-100.00,SSW,201,1.0,7.0,98,0.01,,,0.83,0.000000,,2013-08-06 10:01:00,
2013-08-06 05:10:00,62.0,61.0,-100.00,SW,219,2.0,7.0,97,0.00,,,0.83,0.000000,,2013-08-06 10:10:00,
2013-08-06 05:32:00,62.0,61.0,-100.00,SW,219,2.0,7.0,97,0.00,,,0.83,0.000000,,2013-08-06 10:32:00,
2013-08-06 05:43:00,62.0,61.0,-100.00,SW,219,2.0,7.0,97,0.00,,,0.83,0.000000,,2013-08-06 10:43:00,
2013-08-06 05:53:00,62.0,61.0,-100.00,SW,219,2.0,7.0,97,0.00,,,0.83,0.000000,,2013-08-06 10:53:00,
2013-08-06 06:02:00,62.0,61.0,-100.00,SW,219,2.0,7.0,97,0.00,,,0.83,0.000000,,2013-08-06 11:02:00,
2013-08-06 06:10:00,62.0,61.0,-100.00,South,183,2.0,8.0,98,0.00,,,0.83,0.000000,,2013-08-06 11:10:00,
2013-08-06 06:32:00,62.0,61.0,-100.00,South,183,2.0,8.0,98,0.00,,,0.83,0.000000,,2013-08-06 11:32:00,
2013-08-06 06:43:00,62.0,61.0,-100.00,South,183,2.0,8.0,98,0.00,,,0.83,0.000000,,2013-08-06 11:43:00,
2013-08-06 06:53:00,62.0,61.0,-100.00,South,183,2.0,8.0,98,0.00,,,0.83,0.000000,,2013-08-06 11:53:00,
2013-08-06 07:02:00,62.0,61.0,-100.00,South,183,2.0,8.0,98,0.00,,,0.83,0.000000,,2013-08-06 12:02:00,
2013-08-06 07:10:00,63.0,62.0,-100.00,South,169,1.0,6.0,98,0.00,,,0.83,14.000000,,2013-08-06 12:10:00,
2013-08-06 07:43:00,63.0,62.0,-100.00,South,169,1.0,6.0,98,0.00,,,0.83,14.000000,,2013-08-06 12:43:00,
2013-08-06 07:52:00,63.0,62.0,-100.00,South,169,1.0,6.0,98,0.00,,,0.83,14.000000,,2013-08-06 12:52:00,
2013-08-06 08:02:00,63.0,62.0,-100.00,South,169,1.0,6.0,98,0.00,,,0.83,14.000000,,2013-08-06 13:02:00,
2013-08-06 08:10:00,63.0,62.0,-100.00,SSW,202,1.0,6.0,98,0.00,,,0.82,36.000000,,2013-08-06 13:10:00,
2013-08-06 08:32:00,63.0,62.0,-100.00,SSW,202,1.0,6.0,98,0.00,,,0.82,36.000000,,2013-08-06 13:32:00,
2013-08-06 08:42:00,63.0,62.0,-100.00,SSW,202,1.0,6.0,98,0.00,,,0.82,36.000000,,2013-08-06 13:42:00,
2013-08-06 08:53:00,63.0,62.0,-100.00,SSW,202,1.0,6.0,98,0.00,,,0.82,36.000000,,2013-08-06 13:53:00,
2013-08-06 09:01:00,63.0,62.0,-100.00,SSW,202,1.0,6.0,98,0.00,,,0.82,36.000000,,2013-08-06 14:01:00,
2013-08-06 09:10:00,65.0,64.0,-100.00,SSW,193,1.0,6.0,96,0.00,,,0.81,91.000000,,2013-08-06 14:10:00,
2013-08-06 09:42:00,65.0,64.0,-100.00,SSW,193,1.0,6.0,96,0.00,,,0.81,91.000000,,2013-08-06 14:42:00,
2013-08-06 09:53:00,65.0,64.0,-100.00,SSW,193,1.0,6.0,96,0.00,,,0.81,91.000000,,2013-08-06 14:53:00,
2013-08-06 10:02:00,65.0,64.0,-100.00,SSW,193,1.0,6.0,96,0.00,,,0.81,91.000000,,2013-08-06 15:02:00,
2013-08-06 10:10:00,67.0,63.0,-100.00,SW,216,3.0,6.0,87,0.00,,,0.68,198.000000,,2013-08-06 15:10:00,
2013-08-06 10:44:00,67.0,63.0,-100.00,SW,216,3.0,6.0,87,0.00,,,0.68,198.000000,,2013-08-06 15:44:00,
2013-08-06 10:52:00,67.0,63.0,-100.00,SW,216,3.0,6.0,87,0.00,,,0.68,198.000000,,2013-08-06 15:52:00,
2013-08-06 11:02:00,67.0,63.0,-100.00,SW,216,3.0,6.0,87,0.00,,,0.68,198.000000,,2013-08-06 16:02:00,
2013-08-06 11:10:00,69.0,62.0,-100.00,SW,216,2.0,8.0,78,0.00,,,0.55,246.000000,,2013-08-06 16:10:00,
2013-08-06 11:43:00,69.0,62.0,-100.00,SW,216,2.0,8.0,78,0.00,,,0.55,246.000000,,2013-08-06 16:43:00,
2013-08-06 11:52:00,69.0,62.0,-100.00,SW,216,2.0,8.0,78,0.00,,,0.55,246.000000,,2013-08-06 16:52:00,
2013-08-06 12:02:00,69.0,62.0,-100.00,SW,216,2.0,8.0,78,0.00,,,0.55,246.000000,,2013-08-06 17:02:00,
2013-08-06 12:10:00,71.0,60.0,-100.00,WSW,258,3.0,9.0,68,0.00,,,0.54,376.000000,,2013-08-06 17:10:00,
2013-08-06 12:32:00,71.0,60.0,-100.00,WSW,258,3.0,9.0,68,0.00,,,0.54,376.000000,,2013-08-06 17:32:00,
2013-08-06 12:44:00,71.0,60.0,-100.00,WSW,258,3.0,9.0,68,0.00,,,0.54,376.000000,,2013-08-06 17:44:00,
2013-08-06 12:52:00,71.0,60.0,-100.00,WSW,258,3.0,9.0,68,0.00,,,0.54,376.000000,,2013-08-06 17:52:00,
2013-08-06 13:01:00,71.0,60.0,-100.00,WSW,258,3.0,9.0,68,0.00,,,0.54,376.000000,,2013-08-06 18:01:00,
2013-08-06 13:10:00,74.0,59.0,-100.00,SSW,213,4.0,11.0,59,0.00,,,0.42,762.000000,,2013-08-06 18:10:00,
2013-08-06 13:32:00,74.0,59.0,-100.00,SSW,213,4.0,11.0,59,0.00,,,0.42,762.000000,,2013-08-06 18:32:00,
2013-08-06 13:44:00,74.0,59.0,-100.00,SSW,213,4.0,11.0,59,0.00,,,0.42,762.000000,,2013-08-06 18:44:00,
2013-08-06 13:52:00,74.0,59.0,-100.00,SSW,213,4.0,11.0,59,0.00,,,0.42,762.000000,,2013-08-06 18:52:00,
2013-08-06 14:01:00,74.0,59.0,-100.00,SSW,213,4.0,11.0,59,0.00,,,0.42,762.000000,,2013-08-06 19:01:00,
2013-08-06 14:10:00,73.0,58.0,-100.00,WSW,252,4.0,14.0,59,0.00,,,0.07,565.000000,,2013-08-06 19:10:00,
2013-08-06 14:42:00,73.0,58.0,-100.00,WSW,252,4.0,14.0,59,0.00,,,0.07,565.000000,,2013-08-06 19:42:00,
2013-08-06 14:52:00,73.0,58.0,-100.00,WSW,252,4.0,14.0,59,0.00,,,0.07,565.000000,,2013-08-06 19:52:00,
2013-08-06 15:01:00,73.0,58.0,-100.00,WSW,252,4.0,14.0,59,0.00,,,0.07,565.000000,,2013-08-06 20:01:00,
2013-08-06 15:10:00,75.0,58.0,-100.00,WSW,241,3.0,10.0,55,0.00,,,0.07,500.000000,,2013-08-06 20:10:00,
2013-08-06 15:44:00,75.0,58.0,-100.00,WSW,241,3.0,10.0,55,0.00,,,0.07,500.000000,,2013-08-06 20:44:00,
2013-08-06 15:52:00,75.0,58.0,-100.00,WSW,241,3.0,10.0,55,0.00,,,0.07,500.000000,,2013-08-06 20:52:00,
2013-08-06 16:01:00,75.0,58.0,-100.00,WSW,241,3.0,10.0,55,0.00,,,0.07,500.000000,,2013-08-06 21:01:00,
2013-08-06 16:10:00,74.0,57.0,-100.00,SW,219,3.0,11.0,55,0.00,,,0.07,425.000000,,2013-08-06 21:10:00,
2013-08-06 16:32:00,74.0,57.0,-100.00,SW,219,3.0,11.0,55,0.00,,,0.07,425.000000,,2013-08-06 21:32:00,
2013-08-06 16:43:00,74.0,57.0,-100.00,SW,219,3.0,11.0,55,0.00,,,0.07,425.000000,,2013-08-06 21:43:00,
2013-08-06 16:52:00,74.0,57.0,-100.00,SW,219,3.0,11.0,55,0.00,,,0.07,425.000000,,2013-08-06 21:52:00,
2013-08-06 17:01:00,74.0,57.0,-100.00,SW,219,3.0,11.0,55,0.00,,,0.07,425.000000,,2013-08-06 22:01:00,
2013-08-06 17:10:00,77.0,57.0,-100.00,West,279,4.0,11.0,50,0.00,,,0.07,382.000000,,2013-08-06 22:10:00,
2013-08-06 17:32:00,77.0,57.0,-100.00,West,279,4.0,11.0,50,0.00,,,0.07,382.000000,,2013-08-06 22:32:00,
2013-08-06 17:43:00,77.0,57.0,-100.00,West,279,4.0,11.0,50,0.00,,,0.07,382.000000,,2013-08-06 22:43:00,
2013-08-06 17:53:00,77.0,57.0,-100.00,West,279,4.0,11.0,50,0.00,,,0.07,382.000000,,2013-08-06 22:53:00,
2013-08-06 18:01:00,77.0,57.0,-100.00,West,279,4.0,11.0,50,0.00,,,0.07,382.000000,,2013-08-06 23:01:00,
2013-08-06 18:10:00,76.0,56.0,-100.00,WSW,246,3.0,9.0,50,0.00,,,0.07,337.000000,,2013-08-06 23:10:00,
2013-08-06 18:33:00,76.0,56.0,-100.00,WSW,246,3.0,9.0,50,0.00,,,0.07,337.000000,,2013-08-06 23:33:00,
2013-08-06 18:43:00,76.0,56.0,-100.00,WSW,246,3.0,9.0,50,0.00,,,0.07,337.000000,,2013-08-06 23:43:00,
2013-08-06 18:52:00,76.0,56.0,-100.00,WSW,246,3.0,9.0,50,0.00,,,0.07,337.000000,,2013-08-06 23:52:00,
2013-08-06 19:01:00,76.0,56.0,-100.00,WSW,246,3.0,9.0,50,0.00,,,0.07,337.000000,,2013-08-07 00:01:00,
2013-08-06 19:10:00,65.0,61.0,-100.00,SSW,196,3.0,9.0,87,0.04,,,0.11,78.000000,,2013-08-07 00:10:00,
2013-08-06 19:43:00,65.0,61.0,-100.00,SSW,196,3.0,9.0,87,0.04,,,0.11,78.000000,,2013-08-07 00:43:00,
2013-08-06 19:52:00,65.0,61.0,-100.00,SSW,196,3.0,9.0,87,0.04,,,0.11,78.000000,,2013-08-07 00:52:00,
2013-08-06 20:01:00,65.0,61.0,-100.00,SSW,196,3.0,9.0,87,0.04,,,0.11,78.000000,,2013-08-07 01:01:00,
2013-08-06 20:10:00,63.0,62.0,-100.00,East,95,0.0,9.0,96,0.00,,,0.11,11.000000,,2013-08-07 01:10:00,
2013-08-06 20:32:00,63.0,62.0,-100.00,East,95,0.0,9.0,96,0.00,,,0.11,11.000000,,2013-08-07 01:32:00,
2013-08-06 20:43:00,63.0,62.0,-100.00,East,95,0.0,9.0,96,0.00,,,0.11,11.000000,,2013-08-07 01:43:00,
2013-08-06 20:52:00,63.0,62.0,-100.00,East,95,0.0,9.0,96,0.00,,,0.11,11.000000,,2013-08-07 01:52:00,
2013-08-06 21:02:00,63.0,62.0,-100.00,East,95,0.0,9.0,96,0.00,,,0.11,11.000000,,2013-08-07 02:02:00,
2013-08-06 21:10:00,62.0,61.0,-100.00,South,172,2.0,10.0,97,0.32,,,0.40,0.000000,,2013-08-07 02:10:00,
2013-08-06 21:43:00,62.0,61.0,-100.00,South,172,2.0,10.0,97,0.32,,,0.40,0.000000,,2013-08-07 02:43:00,
2013-08-06 21:53:00,62.0,61.0,-100.00,South,172,2.0,10.0,97,0.32,,,0.40,0.000000,,2013-08-07 02:53:00,
2013-08-06 22:01:00,62.0,61.0,-100.00,South,172,2.0,10.0,97,0.32,,,0.40,0.000000,,2013-08-07 03:01:00,
2013-08-06 22:10:00,61.0,60.0,-100.00,SSW,193,2.0,8.0,98,0.10,,,0.47,0.000000,,2013-08-07 03:10:00,
2013-08-06 22:32:00,61.0,60.0,-100.00,SSW,193,2.0,8.0,98,0.10,,,0.47,0.000000,,2013-08-07 03:32:00,
2013-08-06 22:43:00,61.0,60.0,-100.00,SSW,193,2.0,8.0,98,0.10,,,0.47,0.000000,,2013-08-07 03:43:00,
2013-08-06 22:52:00,61.0,60.0,-100.00,SSW,193,2.0,8.0,98,0.10,,,0.47,0.000000,,2013-08-07 03:52:00,
2013-08-06 23:01:00,61.0,60.0,-100.00,SSW,193,2.0,8.0,98,0.10,,,0.47,0.000000,,2013-08-07 04:01:00,
2013-08-06 23:10:00,60.0,59.0,-100.00,SW,233,2.0,8.0,98,0.09,,,0.56,0.000000,,2013-08-07 04:10:00,
2013-08-06 23:33:00,60.0,59.0,-100.00,SW,233,2.0,8.0,98,0.09,,,0.56,0.000000,,2013-08-07 04:33:00,
2013-08-06 23:43:00,60.0,59.0,-100.00,SW,233,2.0,8.0,98,0.09,,,0.56,0.000000,,2013-08-07 04:43:00,
2013-08-06 23:52:00,60.0,59.0,-100.00,SW,233,2.0,8.0,98,0.09,,,0.56,0.000000,,2013-08-07 04:52:00,